sensor_id;sensor_type;location;lat;lon;timestamp;P1;durP1;ratioP1;P2;durP2;ratioP2
10458;SDS011;5277;48.722;8.736;2022-08-14T00:00:46;3.70;;;2.67;;
10458;SDS011;5277;48.722;8.736;2022-08-14T00:03:19;3.60;;;2.28;;
10458;SDS011;5277;48.722;8.736;2022-08-14T00:05:50;3.47;;;2.65;;
10458;SDS011;5277;48.722;8.736;2022-08-14T00:08:15;2.55;;;2.35;;
10458;SDS011;5277;48.722;8.736;2022-08-14T00:10:41;3.65;;;2.38;;
10458;SDS011;5277;48.722;8.736;2022-08-14T00:13:07;3.28;;;2.38;;
10458;SDS011;5277;48.722;8.736;2022-08-14T00:15:36;2.58;;;2.08;;
10458;SDS011;5277;48.722;8.736;2022-08-14T00:18:04;3.30;;;2.33;;
10458;SDS011;5277;48.722;8.736;2022-08-14T00:20:33;2.72;;;2.40;;
10458;SDS011;5277;48.722;8.736;2022-08-14T00:23:01;5.15;;;2.72;;
10458;SDS011;5277;48.722;8.736;2022-08-14T00:25:28;2.70;;;2.40;;
10458;SDS011;5277;48.722;8.736;2022-08-14T00:27:54;3.53;;;2.63;;
10458;SDS011;5277;48.722;8.736;2022-08-14T00:30:20;3.15;;;2.70;;
10458;SDS011;5277;48.722;8.736;2022-08-14T00:32:46;3.63;;;2.88;;
10458;SDS011;5277;48.722;8.736;2022-08-14T00:35:11;6.88;;;3.33;;
10458;SDS011;5277;48.722;8.736;2022-08-14T00:37:38;7.68;;;3.60;;
10458;SDS011;5277;48.722;8.736;2022-08-14T00:40:06;5.97;;;4.22;;
10458;SDS011;5277;48.722;8.736;2022-08-14T00:42:33;6.88;;;4.15;;
10458;SDS011;5277;48.722;8.736;2022-08-14T00:44:58;6.03;;;4.20;;
10458;SDS011;5277;48.722;8.736;2022-08-14T00:47:24;5.57;;;4.22;;
10458;SDS011;5277;48.722;8.736;2022-08-14T00:49:51;9.00;;;3.75;;
10458;SDS011;5277;48.722;8.736;2022-08-14T00:52:17;6.57;;;3.20;;
10458;SDS011;5277;48.722;8.736;2022-08-14T00:54:45;4.28;;;3.10;;
10458;SDS011;5277;48.722;8.736;2022-08-14T00:57:17;3.60;;;2.80;;
10458;SDS011;5277;48.722;8.736;2022-08-14T00:59:44;5.20;;;3.08;;
10458;SDS011;5277;48.722;8.736;2022-08-14T01:02:09;4.43;;;2.88;;
10458;SDS011;5277;48.722;8.736;2022-08-14T01:04:39;3.38;;;2.95;;
10458;SDS011;5277;48.722;8.736;2022-08-14T01:07:08;3.28;;;2.65;;
10458;SDS011;5277;48.722;8.736;2022-08-14T01:09:35;3.70;;;2.80;;
10458;SDS011;5277;48.722;8.736;2022-08-14T01:12:02;12.13;;;2.63;;
10458;SDS011;5277;48.722;8.736;2022-08-14T01:14:29;3.33;;;2.50;;
10458;SDS011;5277;48.722;8.736;2022-08-14T01:16:55;3.00;;;2.70;;
10458;SDS011;5277;48.722;8.736;2022-08-14T01:19:21;3.25;;;2.70;;
10458;SDS011;5277;48.722;8.736;2022-08-14T01:22:06;3.55;;;2.38;;
10458;SDS011;5277;48.722;8.736;2022-08-14T01:24:32;6.00;;;3.10;;
10458;SDS011;5277;48.722;8.736;2022-08-14T01:26:58;4.10;;;2.60;;
10458;SDS011;5277;48.722;8.736;2022-08-14T01:29:24;3.15;;;2.85;;
10458;SDS011;5277;48.722;8.736;2022-08-14T01:31:53;3.92;;;2.70;;
10458;SDS011;5277;48.722;8.736;2022-08-14T01:34:19;2.72;;;2.50;;
10458;SDS011;5277;48.722;8.736;2022-08-14T01:36:47;3.95;;;2.60;;
10458;SDS011;5277;48.722;8.736;2022-08-14T01:39:14;2.70;;;2.50;;
10458;SDS011;5277;48.722;8.736;2022-08-14T01:41:42;4.25;;;2.65;;
10458;SDS011;5277;48.722;8.736;2022-08-14T01:44:14;2.95;;;2.42;;
10458;SDS011;5277;48.722;8.736;2022-08-14T01:46:41;3.00;;;2.70;;
10458;SDS011;5277;48.722;8.736;2022-08-14T01:49:12;3.45;;;2.95;;
10458;SDS011;5277;48.722;8.736;2022-08-14T01:51:41;3.15;;;2.85;;
10458;SDS011;5277;48.722;8.736;2022-08-14T01:54:12;3.50;;;2.88;;
10458;SDS011;5277;48.722;8.736;2022-08-14T01:56:40;3.40;;;2.50;;
10458;SDS011;5277;48.722;8.736;2022-08-14T02:01:40;4.90;;;2.40;;
10458;SDS011;5277;48.722;8.736;2022-08-14T02:04:07;4.72;;;2.75;;
10458;SDS011;5277;48.722;8.736;2022-08-14T02:06:34;6.40;;;2.70;;
10458;SDS011;5277;48.722;8.736;2022-08-14T02:09:03;3.45;;;2.80;;
10458;SDS011;5277;48.722;8.736;2022-08-14T02:11:29;2.80;;;2.50;;
10458;SDS011;5277;48.722;8.736;2022-08-14T02:13:57;2.67;;;2.47;;
10458;SDS011;5277;48.722;8.736;2022-08-14T02:16:30;2.97;;;2.60;;
10458;SDS011;5277;48.722;8.736;2022-08-14T02:19:01;2.85;;;2.65;;
10458;SDS011;5277;48.722;8.736;2022-08-14T02:21:33;3.00;;;2.80;;
10458;SDS011;5277;48.722;8.736;2022-08-14T02:24:00;3.30;;;2.80;;
10458;SDS011;5277;48.722;8.736;2022-08-14T02:26:33;3.40;;;2.65;;
10458;SDS011;5277;48.722;8.736;2022-08-14T02:29:06;3.33;;;2.53;;
10458;SDS011;5277;48.722;8.736;2022-08-14T02:31:36;2.75;;;2.55;;
10458;SDS011;5277;48.722;8.736;2022-08-14T02:34:07;3.08;;;2.78;;
10458;SDS011;5277;48.722;8.736;2022-08-14T02:36:39;3.00;;;2.70;;
10458;SDS011;5277;48.722;8.736;2022-08-14T02:39:08;2.90;;;2.60;;
10458;SDS011;5277;48.722;8.736;2022-08-14T02:41:35;3.05;;;2.75;;
10458;SDS011;5277;48.722;8.736;2022-08-14T02:44:02;2.97;;;2.67;;
10458;SDS011;5277;48.722;8.736;2022-08-14T02:46:29;3.40;;;2.83;;
10458;SDS011;5277;48.722;8.736;2022-08-14T02:48:56;3.17;;;2.72;;
10458;SDS011;5277;48.722;8.736;2022-08-14T02:51:22;3.42;;;2.92;;
10458;SDS011;5277;48.722;8.736;2022-08-14T02:53:48;3.20;;;2.90;;
10458;SDS011;5277;48.722;8.736;2022-08-14T02:56:14;2.95;;;2.65;;
10458;SDS011;5277;48.722;8.736;2022-08-14T02:58:44;3.67;;;2.90;;
10458;SDS011;5277;48.722;8.736;2022-08-14T03:01:12;4.93;;;2.80;;
10458;SDS011;5277;48.722;8.736;2022-08-14T03:03:40;4.20;;;2.70;;
10458;SDS011;5277;48.722;8.736;2022-08-14T03:06:07;2.83;;;2.47;;
10458;SDS011;5277;48.722;8.736;2022-08-14T03:08:34;3.28;;;2.97;;
10458;SDS011;5277;48.722;8.736;2022-08-14T03:11:02;5.13;;;3.28;;
10458;SDS011;5277;48.722;8.736;2022-08-14T03:13:52;3.63;;;3.22;;
10458;SDS011;5277;48.722;8.736;2022-08-14T03:16:19;3.20;;;2.90;;
10458;SDS011;5277;48.722;8.736;2022-08-14T03:18:46;3.88;;;2.67;;
10458;SDS011;5277;48.722;8.736;2022-08-14T03:21:15;3.10;;;2.53;;
10458;SDS011;5277;48.722;8.736;2022-08-14T03:23:43;5.40;;;3.00;;
10458;SDS011;5277;48.722;8.736;2022-08-14T03:26:14;3.13;;;2.60;;
10458;SDS011;5277;48.722;8.736;2022-08-14T03:28:42;3.22;;;2.85;;
10458;SDS011;5277;48.722;8.736;2022-08-14T03:31:10;3.08;;;2.78;;
10458;SDS011;5277;48.722;8.736;2022-08-14T03:33:36;3.30;;;3.00;;
10458;SDS011;5277;48.722;8.736;2022-08-14T03:36:11;3.35;;;3.00;;
10458;SDS011;5277;48.722;8.736;2022-08-14T03:38:39;3.47;;;2.92;;
10458;SDS011;5277;48.722;8.736;2022-08-14T03:41:10;5.07;;;3.00;;
10458;SDS011;5277;48.722;8.736;2022-08-14T03:43:46;3.30;;;3.00;;
10458;SDS011;5277;48.722;8.736;2022-08-14T03:46:14;4.43;;;3.00;;
10458;SDS011;5277;48.722;8.736;2022-08-14T03:48:41;5.60;;;3.10;;
10458;SDS011;5277;48.722;8.736;2022-08-14T03:51:08;2.95;;;2.65;;
10458;SDS011;5277;48.722;8.736;2022-08-14T03:53:37;5.47;;;3.10;;
10458;SDS011;5277;48.722;8.736;2022-08-14T03:56:08;3.60;;;3.30;;
10458;SDS011;5277;48.722;8.736;2022-08-14T03:58:38;3.85;;;3.45;;
10458;SDS011;5277;48.722;8.736;2022-08-14T04:01:06;3.40;;;3.10;;
10458;SDS011;5277;48.722;8.736;2022-08-14T04:03:33;3.10;;;2.80;;
10458;SDS011;5277;48.722;8.736;2022-08-14T04:05:59;10.43;;;3.20;;
10458;SDS011;5277;48.722;8.736;2022-08-14T04:08:25;3.60;;;3.05;;
10458;SDS011;5277;48.722;8.736;2022-08-14T04:10:51;3.28;;;2.97;;
10458;SDS011;5277;48.722;8.736;2022-08-14T04:13:17;3.35;;;3.00;;
10458;SDS011;5277;48.722;8.736;2022-08-14T04:15:43;3.17;;;2.88;;
10458;SDS011;5277;48.722;8.736;2022-08-14T04:18:10;3.58;;;3.03;;
10458;SDS011;5277;48.722;8.736;2022-08-14T04:20:36;3.58;;;3.10;;
10458;SDS011;5277;48.722;8.736;2022-08-14T04:23:04;3.65;;;3.20;;
10458;SDS011;5277;48.722;8.736;2022-08-14T04:25:33;3.85;;;3.17;;
10458;SDS011;5277;48.722;8.736;2022-08-14T04:28:03;5.22;;;3.15;;
10458;SDS011;5277;48.722;8.736;2022-08-14T04:30:31;5.45;;;2.92;;
10458;SDS011;5277;48.722;8.736;2022-08-14T04:32:57;3.50;;;2.88;;
10458;SDS011;5277;48.722;8.736;2022-08-14T04:35:23;3.97;;;2.75;;
10458;SDS011;5277;48.722;8.736;2022-08-14T04:37:49;3.53;;;3.22;;
10458;SDS011;5277;48.722;8.736;2022-08-14T04:40:33;3.53;;;3.10;;
10458;SDS011;5277;48.722;8.736;2022-08-14T04:43:17;6.05;;;3.72;;
10458;SDS011;5277;48.722;8.736;2022-08-14T04:46:03;3.30;;;2.97;;
10458;SDS011;5277;48.722;8.736;2022-08-14T04:48:29;3.55;;;3.25;;
10458;SDS011;5277;48.722;8.736;2022-08-14T04:50:55;4.13;;;3.30;;
10458;SDS011;5277;48.722;8.736;2022-08-14T04:53:24;3.63;;;3.30;;
10458;SDS011;5277;48.722;8.736;2022-08-14T04:55:53;5.22;;;3.53;;
10458;SDS011;5277;48.722;8.736;2022-08-14T04:58:21;3.25;;;2.95;;
10458;SDS011;5277;48.722;8.736;2022-08-14T05:00:51;3.72;;;3.33;;
10458;SDS011;5277;48.722;8.736;2022-08-14T05:03:23;3.22;;;2.88;;
10458;SDS011;5277;48.722;8.736;2022-08-14T05:05:52;3.78;;;3.30;;
10458;SDS011;5277;48.722;8.736;2022-08-14T05:08:20;3.95;;;3.20;;
10458;SDS011;5277;48.722;8.736;2022-08-14T05:10:53;5.35;;;3.33;;
10458;SDS011;5277;48.722;8.736;2022-08-14T05:13:20;6.78;;;2.80;;
10458;SDS011;5277;48.722;8.736;2022-08-14T05:15:48;5.47;;;3.42;;
10458;SDS011;5277;48.722;8.736;2022-08-14T05:18:17;3.60;;;3.22;;
10458;SDS011;5277;48.722;8.736;2022-08-14T05:20:47;6.32;;;3.60;;
10458;SDS011;5277;48.722;8.736;2022-08-14T05:23:15;3.40;;;3.10;;
10458;SDS011;5277;48.722;8.736;2022-08-14T05:25:44;3.85;;;3.22;;
10458;SDS011;5277;48.722;8.736;2022-08-14T05:28:17;3.58;;;3.28;;
10458;SDS011;5277;48.722;8.736;2022-08-14T05:30:45;3.90;;;3.47;;
10458;SDS011;5277;48.722;8.736;2022-08-14T05:33:44;3.95;;;3.50;;
10458;SDS011;5277;48.722;8.736;2022-08-14T05:36:10;4.03;;;3.08;;
10458;SDS011;5277;48.722;8.736;2022-08-14T05:38:37;3.75;;;3.15;;
10458;SDS011;5277;48.722;8.736;2022-08-14T05:41:16;3.30;;;2.95;;
10458;SDS011;5277;48.722;8.736;2022-08-14T05:43:44;3.78;;;3.45;;
10458;SDS011;5277;48.722;8.736;2022-08-14T05:46:13;3.83;;;3.40;;
10458;SDS011;5277;48.722;8.736;2022-08-14T05:48:50;3.60;;;3.30;;
10458;SDS011;5277;48.722;8.736;2022-08-14T05:51:17;3.95;;;3.40;;
10458;SDS011;5277;48.722;8.736;2022-08-14T05:53:43;5.43;;;3.78;;
10458;SDS011;5277;48.722;8.736;2022-08-14T05:56:09;3.92;;;3.15;;
10458;SDS011;5277;48.722;8.736;2022-08-14T05:58:35;7.55;;;3.80;;
10458;SDS011;5277;48.722;8.736;2022-08-14T06:01:01;3.28;;;2.97;;
10458;SDS011;5277;48.722;8.736;2022-08-14T06:03:27;3.35;;;3.05;;
10458;SDS011;5277;48.722;8.736;2022-08-14T06:05:53;5.82;;;3.30;;
10458;SDS011;5277;48.722;8.736;2022-08-14T06:08:23;4.38;;;3.20;;
10458;SDS011;5277;48.722;8.736;2022-08-14T06:10:51;5.93;;;3.40;;
10458;SDS011;5277;48.722;8.736;2022-08-14T06:13:18;3.33;;;3.03;;
10458;SDS011;5277;48.722;8.736;2022-08-14T06:15:45;5.43;;;3.20;;
10458;SDS011;5277;48.722;8.736;2022-08-14T06:18:13;6.05;;;3.15;;
10458;SDS011;5277;48.722;8.736;2022-08-14T06:20:40;7.25;;;3.53;;
10458;SDS011;5277;48.722;8.736;2022-08-14T06:23:06;3.65;;;3.35;;
10458;SDS011;5277;48.722;8.736;2022-08-14T06:25:32;3.40;;;3.10;;
10458;SDS011;5277;48.722;8.736;2022-08-14T06:27:57;3.50;;;3.20;;
10458;SDS011;5277;48.722;8.736;2022-08-14T06:30:27;3.83;;;3.45;;
10458;SDS011;5277;48.722;8.736;2022-08-14T06:32:54;3.42;;;3.10;;
10458;SDS011;5277;48.722;8.736;2022-08-14T06:35:20;3.70;;;3.40;;
10458;SDS011;5277;48.722;8.736;2022-08-14T06:37:54;4.30;;;3.65;;
10458;SDS011;5277;48.722;8.736;2022-08-14T06:40:23;5.63;;;3.75;;
10458;SDS011;5277;48.722;8.736;2022-08-14T06:42:49;3.33;;;3.03;;
10458;SDS011;5277;48.722;8.736;2022-08-14T06:45:15;3.55;;;2.90;;
10458;SDS011;5277;48.722;8.736;2022-08-14T06:47:42;4.20;;;3.80;;
10458;SDS011;5277;48.722;8.736;2022-08-14T06:50:10;3.72;;;3.38;;
10458;SDS011;5277;48.722;8.736;2022-08-14T06:52:37;3.78;;;3.28;;
10458;SDS011;5277;48.722;8.736;2022-08-14T06:55:06;3.83;;;3.28;;
10458;SDS011;5277;48.722;8.736;2022-08-14T06:57:34;4.47;;;3.28;;
10458;SDS011;5277;48.722;8.736;2022-08-14T07:00:03;6.07;;;3.60;;
10458;SDS011;5277;48.722;8.736;2022-08-14T07:02:31;5.00;;;3.20;;
10458;SDS011;5277;48.722;8.736;2022-08-14T07:05:15;3.28;;;2.97;;
10458;SDS011;5277;48.722;8.736;2022-08-14T07:07:59;3.50;;;3.17;;
10458;SDS011;5277;48.722;8.736;2022-08-14T07:10:25;5.93;;;3.85;;
10458;SDS011;5277;48.722;8.736;2022-08-14T07:12:51;4.70;;;3.10;;
10458;SDS011;5277;48.722;8.736;2022-08-14T07:15:17;4.00;;;2.85;;
10458;SDS011;5277;48.722;8.736;2022-08-14T07:17:44;4.30;;;3.08;;
10458;SDS011;5277;48.722;8.736;2022-08-14T07:20:13;5.38;;;3.70;;
10458;SDS011;5277;48.722;8.736;2022-08-14T07:22:44;7.50;;;3.60;;
10458;SDS011;5277;48.722;8.736;2022-08-14T07:25:13;31.13;;;6.97;;
10458;SDS011;5277;48.722;8.736;2022-08-14T07:27:39;31.67;;;6.70;;
10458;SDS011;5277;48.722;8.736;2022-08-14T07:30:06;23.25;;;5.07;;
10458;SDS011;5277;48.722;8.736;2022-08-14T07:32:32;17.05;;;4.75;;
10458;SDS011;5277;48.722;8.736;2022-08-14T07:34:57;6.78;;;3.28;;
10458;SDS011;5277;48.722;8.736;2022-08-14T07:37:23;12.43;;;3.30;;
10458;SDS011;5277;48.722;8.736;2022-08-14T07:39:49;4.07;;;2.85;;
10458;SDS011;5277;48.722;8.736;2022-08-14T07:42:15;4.78;;;3.35;;
10458;SDS011;5277;48.722;8.736;2022-08-14T07:44:41;6.68;;;3.30;;
10458;SDS011;5277;48.722;8.736;2022-08-14T07:47:07;2.97;;;2.70;;
10458;SDS011;5277;48.722;8.736;2022-08-14T07:49:32;3.55;;;3.25;;
10458;SDS011;5277;48.722;8.736;2022-08-14T07:52:00;5.13;;;2.67;;
10458;SDS011;5277;48.722;8.736;2022-08-14T07:54:26;5.18;;;3.03;;
10458;SDS011;5277;48.722;8.736;2022-08-14T07:56:52;3.40;;;3.10;;
10458;SDS011;5277;48.722;8.736;2022-08-14T07:59:17;4.30;;;2.70;;
10458;SDS011;5277;48.722;8.736;2022-08-14T08:01:46;4.60;;;2.90;;
10458;SDS011;5277;48.722;8.736;2022-08-14T08:04:12;2.90;;;2.70;;
10458;SDS011;5277;48.722;8.736;2022-08-14T08:06:39;3.95;;;2.60;;
10458;SDS011;5277;48.722;8.736;2022-08-14T08:09:05;5.32;;;2.47;;
10458;SDS011;5277;48.722;8.736;2022-08-14T08:11:33;4.32;;;2.50;;
10458;SDS011;5277;48.722;8.736;2022-08-14T08:14:02;3.10;;;2.28;;
10458;SDS011;5277;48.722;8.736;2022-08-14T08:16:33;3.10;;;2.75;;
10458;SDS011;5277;48.722;8.736;2022-08-14T08:19:00;2.42;;;2.15;;
10458;SDS011;5277;48.722;8.736;2022-08-14T08:21:26;2.40;;;2.20;;
10458;SDS011;5277;48.722;8.736;2022-08-14T08:23:51;4.00;;;2.55;;
10458;SDS011;5277;48.722;8.736;2022-08-14T08:26:18;3.45;;;2.05;;
10458;SDS011;5277;48.722;8.736;2022-08-14T08:28:53;2.65;;;2.22;;
10458;SDS011;5277;48.722;8.736;2022-08-14T08:31:20;2.10;;;1.90;;
10458;SDS011;5277;48.722;8.736;2022-08-14T08:33:49;5.03;;;2.35;;
10458;SDS011;5277;48.722;8.736;2022-08-14T08:36:16;3.10;;;2.20;;
10458;SDS011;5277;48.722;8.736;2022-08-14T08:38:42;3.88;;;1.95;;
10458;SDS011;5277;48.722;8.736;2022-08-14T08:41:09;2.10;;;1.90;;
10458;SDS011;5277;48.722;8.736;2022-08-14T08:43:35;3.30;;;2.13;;
10458;SDS011;5277;48.722;8.736;2022-08-14T08:46:05;2.30;;;2.03;;
10458;SDS011;5277;48.722;8.736;2022-08-14T08:48:43;4.30;;;2.03;;
10458;SDS011;5277;48.722;8.736;2022-08-14T08:53:54;5.20;;;2.30;;
10458;SDS011;5277;48.722;8.736;2022-08-14T09:01:51;3.83;;;2.10;;
10458;SDS011;5277;48.722;8.736;2022-08-14T09:04:23;2.28;;;1.90;;
10458;SDS011;5277;48.722;8.736;2022-08-14T09:06:50;2.13;;;1.98;;
10458;SDS011;5277;48.722;8.736;2022-08-14T09:09:20;2.22;;;2.03;;
10458;SDS011;5277;48.722;8.736;2022-08-14T09:11:46;3.72;;;2.15;;
10458;SDS011;5277;48.722;8.736;2022-08-14T09:14:12;2.13;;;1.85;;
10458;SDS011;5277;48.722;8.736;2022-08-14T09:16:38;2.13;;;1.77;;
10458;SDS011;5277;48.722;8.736;2022-08-14T09:19:04;2.22;;;2.05;;
10458;SDS011;5277;48.722;8.736;2022-08-14T09:21:30;2.38;;;2.17;;
10458;SDS011;5277;48.722;8.736;2022-08-14T09:23:58;2.42;;;2.20;;
10458;SDS011;5277;48.722;8.736;2022-08-14T09:26:25;3.13;;;2.35;;
10458;SDS011;5277;48.722;8.736;2022-08-14T09:28:51;3.75;;;2.33;;
10458;SDS011;5277;48.722;8.736;2022-08-14T09:31:17;3.15;;;2.35;;
10458;SDS011;5277;48.722;8.736;2022-08-14T09:34:02;5.13;;;2.45;;
10458;SDS011;5277;48.722;8.736;2022-08-14T09:36:51;2.40;;;2.20;;
10458;SDS011;5277;48.722;8.736;2022-08-14T09:45:17;2.20;;;2.00;;
10458;SDS011;5277;48.722;8.736;2022-08-14T09:47:54;2.30;;;2.10;;
10458;SDS011;5277;48.722;8.736;2022-08-14T09:50:31;2.65;;;2.45;;
10458;SDS011;5277;48.722;8.736;2022-08-14T09:53:08;3.97;;;2.08;;
10458;SDS011;5277;48.722;8.736;2022-08-14T09:55:35;3.65;;;2.33;;
10458;SDS011;5277;48.722;8.736;2022-08-14T09:58:06;2.53;;;2.33;;
10458;SDS011;5277;48.722;8.736;2022-08-14T10:00:55;2.42;;;2.22;;
10458;SDS011;5277;48.722;8.736;2022-08-14T10:03:28;3.92;;;1.88;;
10458;SDS011;5277;48.722;8.736;2022-08-14T10:08:41;1.95;;;1.85;;
10458;SDS011;5277;48.722;8.736;2022-08-14T10:11:15;2.17;;;1.92;;
10458;SDS011;5277;48.722;8.736;2022-08-14T10:13:50;2.50;;;2.30;;
10458;SDS011;5277;48.722;8.736;2022-08-14T10:16:19;2.50;;;2.30;;
10458;SDS011;5277;48.722;8.736;2022-08-14T10:18:48;3.22;;;2.45;;
10458;SDS011;5277;48.722;8.736;2022-08-14T10:21:16;2.50;;;2.30;;
10458;SDS011;5277;48.722;8.736;2022-08-14T10:23:46;3.15;;;2.30;;
10458;SDS011;5277;48.722;8.736;2022-08-14T10:26:18;4.30;;;2.42;;
10458;SDS011;5277;48.722;8.736;2022-08-14T10:28:48;3.65;;;2.40;;
10458;SDS011;5277;48.722;8.736;2022-08-14T10:31:22;2.60;;;2.40;;
10458;SDS011;5277;48.722;8.736;2022-08-14T10:33:58;3.55;;;2.55;;
10458;SDS011;5277;48.722;8.736;2022-08-14T10:36:30;2.90;;;2.38;;
10458;SDS011;5277;48.722;8.736;2022-08-14T10:39:00;3.10;;;2.80;;
10458;SDS011;5277;48.722;8.736;2022-08-14T10:41:40;3.50;;;2.63;;
10458;SDS011;5277;48.722;8.736;2022-08-14T10:44:17;4.05;;;2.50;;
10458;SDS011;5277;48.722;8.736;2022-08-14T10:46:51;2.70;;;2.50;;
10458;SDS011;5277;48.722;8.736;2022-08-14T10:49:28;4.65;;;2.55;;
10458;SDS011;5277;48.722;8.736;2022-08-14T10:52:05;2.80;;;2.60;;
10458;SDS011;5277;48.722;8.736;2022-08-14T10:54:34;2.75;;;2.38;;
10458;SDS011;5277;48.722;8.736;2022-08-14T11:00:12;2.60;;;2.45;;
10458;SDS011;5277;48.722;8.736;2022-08-14T11:02:40;3.75;;;2.47;;
10458;SDS011;5277;48.722;8.736;2022-08-14T11:05:08;3.85;;;2.60;;
10458;SDS011;5277;48.722;8.736;2022-08-14T11:07:39;2.88;;;2.67;;
10458;SDS011;5277;48.722;8.736;2022-08-14T11:10:37;7.93;;;2.60;;
10458;SDS011;5277;48.722;8.736;2022-08-14T11:13:04;2.95;;;2.50;;
10458;SDS011;5277;48.722;8.736;2022-08-14T11:15:31;2.90;;;2.60;;
10458;SDS011;5277;48.722;8.736;2022-08-14T11:17:56;3.80;;;2.58;;
10458;SDS011;5277;48.722;8.736;2022-08-14T11:20:23;2.88;;;2.67;;
10458;SDS011;5277;48.722;8.736;2022-08-14T11:22:52;3.03;;;2.55;;
10458;SDS011;5277;48.722;8.736;2022-08-14T11:25:19;3.08;;;2.88;;
10458;SDS011;5277;48.722;8.736;2022-08-14T11:27:48;3.40;;;2.50;;
10458;SDS011;5277;48.722;8.736;2022-08-14T11:30:17;2.75;;;2.55;;
10458;SDS011;5277;48.722;8.736;2022-08-14T11:32:46;2.80;;;2.60;;
10458;SDS011;5277;48.722;8.736;2022-08-14T11:35:14;2.85;;;2.65;;
10458;SDS011;5277;48.722;8.736;2022-08-14T11:37:54;2.85;;;2.50;;
10458;SDS011;5277;48.722;8.736;2022-08-14T11:40:24;4.82;;;2.47;;
10458;SDS011;5277;48.722;8.736;2022-08-14T11:42:52;3.17;;;2.67;;
10458;SDS011;5277;48.722;8.736;2022-08-14T11:45:20;2.88;;;2.67;;
10458;SDS011;5277;48.722;8.736;2022-08-14T11:47:53;3.00;;;2.80;;
10458;SDS011;5277;48.722;8.736;2022-08-14T11:50:22;4.78;;;2.90;;
10458;SDS011;5277;48.722;8.736;2022-08-14T11:52:51;2.90;;;2.70;;
10458;SDS011;5277;48.722;8.736;2022-08-14T11:55:17;3.00;;;2.70;;
10458;SDS011;5277;48.722;8.736;2022-08-14T11:57:44;3.35;;;2.83;;
10458;SDS011;5277;48.722;8.736;2022-08-14T12:00:12;2.95;;;2.75;;
10458;SDS011;5277;48.722;8.736;2022-08-14T12:02:51;2.92;;;2.70;;
10458;SDS011;5277;48.722;8.736;2022-08-14T12:05:36;3.20;;;3.00;;
10458;SDS011;5277;48.722;8.736;2022-08-14T12:08:06;4.55;;;2.53;;
10458;SDS011;5277;48.722;8.736;2022-08-14T12:10:34;4.05;;;2.88;;
10458;SDS011;5277;48.722;8.736;2022-08-14T12:13:10;3.10;;;2.90;;
10458;SDS011;5277;48.722;8.736;2022-08-14T12:15:44;2.92;;;2.60;;
10458;SDS011;5277;48.722;8.736;2022-08-14T12:18:30;3.00;;;2.80;;
10458;SDS011;5277;48.722;8.736;2022-08-14T12:21:14;3.55;;;2.80;;
10458;SDS011;5277;48.722;8.736;2022-08-14T12:23:40;3.20;;;2.95;;
10458;SDS011;5277;48.722;8.736;2022-08-14T12:26:08;3.00;;;2.80;;
10458;SDS011;5277;48.722;8.736;2022-08-14T12:28:47;3.08;;;2.88;;
10458;SDS011;5277;48.722;8.736;2022-08-14T12:31:19;5.43;;;3.38;;
10458;SDS011;5277;48.722;8.736;2022-08-14T12:33:55;4.20;;;2.83;;
10458;SDS011;5277;48.722;8.736;2022-08-14T12:36:25;2.90;;;2.70;;
10458;SDS011;5277;48.722;8.736;2022-08-14T12:39:03;3.30;;;3.00;;
10458;SDS011;5277;48.722;8.736;2022-08-14T12:41:47;2.85;;;2.65;;
10458;SDS011;5277;48.722;8.736;2022-08-14T12:44:27;2.40;;;2.20;;
10458;SDS011;5277;48.722;8.736;2022-08-14T12:47:00;2.65;;;2.45;;
10458;SDS011;5277;48.722;8.736;2022-08-14T12:49:27;3.20;;;2.33;;
10458;SDS011;5277;48.722;8.736;2022-08-14T12:51:57;2.65;;;2.47;;
10458;SDS011;5277;48.722;8.736;2022-08-14T12:54:24;4.47;;;3.00;;
10458;SDS011;5277;48.722;8.736;2022-08-14T12:57:00;2.30;;;2.10;;
10458;SDS011;5277;48.722;8.736;2022-08-14T12:59:31;2.70;;;2.50;;
10458;SDS011;5277;48.722;8.736;2022-08-14T13:01:57;2.45;;;2.25;;
10458;SDS011;5277;48.722;8.736;2022-08-14T13:04:23;2.30;;;2.10;;
10458;SDS011;5277;48.722;8.736;2022-08-14T13:06:49;2.60;;;2.40;;
10458;SDS011;5277;48.722;8.736;2022-08-14T13:09:17;2.50;;;2.30;;
10458;SDS011;5277;48.722;8.736;2022-08-14T13:11:44;3.25;;;2.10;;
10458;SDS011;5277;48.722;8.736;2022-08-14T13:14:17;3.10;;;2.13;;
10458;SDS011;5277;48.722;8.736;2022-08-14T13:16:53;2.38;;;2.03;;
10458;SDS011;5277;48.722;8.736;2022-08-14T13:19:21;2.35;;;2.00;;
10458;SDS011;5277;48.722;8.736;2022-08-14T13:21:50;2.17;;;1.95;;
10458;SDS011;5277;48.722;8.736;2022-08-14T13:24:19;3.00;;;1.90;;
10458;SDS011;5277;48.722;8.736;2022-08-14T13:26:47;2.10;;;1.90;;
10458;SDS011;5277;48.722;8.736;2022-08-14T13:29:20;3.70;;;1.70;;
10458;SDS011;5277;48.722;8.736;2022-08-14T13:31:50;2.47;;;1.90;;
10458;SDS011;5277;48.722;8.736;2022-08-14T13:34:23;2.20;;;1.83;;
10458;SDS011;5277;48.722;8.736;2022-08-14T13:36:50;2.20;;;1.75;;
10458;SDS011;5277;48.722;8.736;2022-08-14T13:39:17;2.35;;;1.73;;
10458;SDS011;5277;48.722;8.736;2022-08-14T13:41:45;2.88;;;1.90;;
10458;SDS011;5277;48.722;8.736;2022-08-14T13:44:12;2.20;;;2.00;;
10458;SDS011;5277;48.722;8.736;2022-08-14T13:46:46;2.17;;;1.98;;
10458;SDS011;5277;48.722;8.736;2022-08-14T13:49:13;2.00;;;1.80;;
10458;SDS011;5277;48.722;8.736;2022-08-14T13:51:45;3.67;;;2.05;;
10458;SDS011;5277;48.722;8.736;2022-08-14T13:54:15;2.20;;;2.00;;
10458;SDS011;5277;48.722;8.736;2022-08-14T13:56:45;3.35;;;2.00;;
10458;SDS011;5277;48.722;8.736;2022-08-14T13:59:12;3.50;;;1.88;;
10458;SDS011;5277;48.722;8.736;2022-08-14T14:01:38;2.30;;;1.90;;
10458;SDS011;5277;48.722;8.736;2022-08-14T14:04:07;2.15;;;1.63;;
10458;SDS011;5277;48.722;8.736;2022-08-14T14:06:40;3.42;;;1.80;;
10458;SDS011;5277;48.722;8.736;2022-08-14T14:09:10;2.03;;;1.80;;
10458;SDS011;5277;48.722;8.736;2022-08-14T14:11:38;5.38;;;1.85;;
10458;SDS011;5277;48.722;8.736;2022-08-14T14:14:05;2.20;;;2.00;;
10458;SDS011;5277;48.722;8.736;2022-08-14T14:16:31;1.88;;;1.77;;
10458;SDS011;5277;48.722;8.736;2022-08-14T14:19:00;3.97;;;2.08;;
10458;SDS011;5277;48.722;8.736;2022-08-14T14:21:27;2.33;;;1.90;;
10458;SDS011;5277;48.722;8.736;2022-08-14T14:23:54;3.42;;;1.88;;
10458;SDS011;5277;48.722;8.736;2022-08-14T14:26:20;4.50;;;1.67;;
10458;SDS011;5277;48.722;8.736;2022-08-14T14:28:47;3.55;;;1.95;;
10458;SDS011;5277;48.722;8.736;2022-08-14T14:31:22;9.30;;;1.85;;
10458;SDS011;5277;48.722;8.736;2022-08-14T14:33:51;2.17;;;1.80;;
10458;SDS011;5277;48.722;8.736;2022-08-14T14:36:20;3.00;;;1.80;;
10458;SDS011;5277;48.722;8.736;2022-08-14T14:41:25;9.57;;;2.10;;
10458;SDS011;5277;48.722;8.736;2022-08-14T14:43:53;3.40;;;2.17;;
10458;SDS011;5277;48.722;8.736;2022-08-14T14:46:24;7.55;;;2.20;;
10458;SDS011;5277;48.722;8.736;2022-08-14T14:48:57;2.10;;;1.90;;
10458;SDS011;5277;48.722;8.736;2022-08-14T14:51:28;2.10;;;1.95;;
10458;SDS011;5277;48.722;8.736;2022-08-14T14:53:53;2.10;;;1.90;;
10458;SDS011;5277;48.722;8.736;2022-08-14T14:56:21;2.50;;;2.00;;
10458;SDS011;5277;48.722;8.736;2022-08-14T14:58:49;3.70;;;1.98;;
10458;SDS011;5277;48.722;8.736;2022-08-14T15:01:15;2.20;;;2.00;;
10458;SDS011;5277;48.722;8.736;2022-08-14T15:03:50;1.77;;;1.67;;
10458;SDS011;5277;48.722;8.736;2022-08-14T15:06:18;2.20;;;1.92;;
10458;SDS011;5277;48.722;8.736;2022-08-14T15:08:45;2.83;;;1.77;;
10458;SDS011;5277;48.722;8.736;2022-08-14T15:11:12;2.70;;;1.98;;
10458;SDS011;5277;48.722;8.736;2022-08-14T15:13:37;3.00;;;1.85;;
10458;SDS011;5277;48.722;8.736;2022-08-14T15:16:03;4.93;;;2.15;;
10458;SDS011;5277;48.722;8.736;2022-08-14T15:18:33;2.28;;;2.08;;
10458;SDS011;5277;48.722;8.736;2022-08-14T15:20:59;4.53;;;2.30;;
10458;SDS011;5277;48.722;8.736;2022-08-14T15:23:27;6.57;;;1.98;;
10458;SDS011;5277;48.722;8.736;2022-08-14T15:25:54;2.38;;;2.17;;
10458;SDS011;5277;48.722;8.736;2022-08-14T15:28:20;4.03;;;2.10;;
10458;SDS011;5277;48.722;8.736;2022-08-14T15:30:47;3.88;;;2.20;;
10458;SDS011;5277;48.722;8.736;2022-08-14T15:33:14;2.95;;;2.47;;
10458;SDS011;5277;48.722;8.736;2022-08-14T15:35:40;2.63;;;2.42;;
10458;SDS011;5277;48.722;8.736;2022-08-14T15:38:06;6.13;;;2.55;;